Time;durP1;ratioP1;P1;durP2;ratioP2;P2;SDS_P1;SDS_P2;PMS_P1;PMS_P2;Temp;Humidity;BMP_temperature;BMP_pressure;BME280_temperature;BME280_humidity;BME280_pressure;Samples;Min_cycle;Max_cycle;Signal;HPM_P1;HPM_P2
2022/09/05 00:02:26;;;;;;;0.00;0.00;;;19.40;94.00;;;;;;4858183;29;20053;-83
2022/09/05 00:05:02;;;;;;;0.00;0.00;;;19.40;94.10;;;;;;4843744;29;20148;-82
2022/09/05 00:07:42;;;;;;;0.00;0.00;;;19.20;94.50;;;;;;4859462;29;20060;-83
2022/09/05 00:10:35;;;;;;;0.00;0.00;;;19.20;94.50;;;;;;4856907;29;20522;-82
2022/09/05 00:13:18;;;;;;;0.00;0.00;;;19.30;94.30;;;;;;4846233;29;20053;-84
2022/09/05 00:16:04;;;;;;;0.00;0.00;;;19.20;94.50;;;;;;4856670;29;20046;-83
2022/09/05 00:18:44;;;;;;;0.00;0.00;;;19.20;94.60;;;;;;4846718;29;20551;-83
2022/09/05 00:21:41;;;;;;;0.00;0.00;;;19.20;94.40;;;;;;4845709;29;20042;-83
2022/09/05 00:24:49;;;;;;;0.00;0.00;;;19.20;94.60;;;;;;4842867;29;20441;-81
2022/09/05 00:27:49;;;;;;;0.00;0.00;;;19.10;95.10;;;;;;4845728;29;20074;-83
2022/09/05 00:30:18;;;;;;;0.00;0.00;;;19.10;95.00;;;;;;4843858;29;20063;-83
2022/09/05 00:33:20;;;;;;;0.05;0.05;;;19.10;95.10;;;;;;4855572;29;20064;-81
2022/09/05 00:35:58;;;;;;;0.00;0.00;;;19.10;95.10;;;;;;4844590;29;20101;-81
2022/09/05 00:38:28;;;;;;;0.00;0.00;;;19.10;95.20;;;;;;4857879;29;20061;-83
2022/09/05 00:41:09;;;;;;;0.00;0.00;;;19.00;95.20;;;;;;4844422;29;20046;-83
2022/09/05 00:43:40;;;;;;;0.00;0.00;;;19.00;95.30;;;;;;4845909;29;20461;-83
2022/09/05 00:46:12;;;;;;;0.00;0.00;;;19.00;95.40;;;;;;4842346;29;20053;-83
2022/09/05 00:48:45;;;;;;;0.00;0.00;;;19.00;95.30;;;;;;4845410;29;20053;-83
2022/09/05 00:51:25;;;;;;;0.00;0.00;;;19.00;95.50;;;;;;4845046;29;20143;-83
2022/09/05 00:54:18;;;;;;;0.00;0.00;;;18.90;95.60;;;;;;4842172;29;20564;-82
2022/09/05 00:57:23;;;;;;;0.00;0.00;;;18.90;95.50;;;;;;4844182;29;20042;-83
2022/09/05 01:00:03;;;;;;;0.00;0.00;;;18.90;95.60;;;;;;4843792;29;20046;-82
2022/09/05 01:02:52;;;;;;;0.00;0.00;;;18.90;95.70;;;;;;4846711;29;20054;-83
2022/09/05 01:05:36;;;;;;;0.00;0.00;;;18.80;95.80;;;;;;4856857;29;20054;-82
2022/09/05 01:08:21;;;;;;;0.00;0.00;;;18.80;95.80;;;;;;4857704;29;20046;-82
2022/09/05 01:10:56;;;;;;;0.00;0.00;;;18.80;95.70;;;;;;4844608;29;20049;-83
2022/09/05 01:13:38;;;;;;;0.00;0.00;;;18.80;95.40;;;;;;4842566;29;20038;-82
2022/09/05 01:16:18;;;;;;;0.00;0.00;;;18.80;95.70;;;;;;4858705;29;20053;-83
2022/09/05 01:18:54;;;;;;;0.00;0.00;;;18.80;95.70;;;;;;4846596;29;20177;-83
2022/09/05 01:21:39;;;;;;;0.00;0.00;;;18.70;96.30;;;;;;4844939;29;20056;-83
2022/09/05 01:24:38;;;;;;;0.00;0.00;;;18.70;96.10;;;;;;4857395;29;20403;-82
2022/09/05 01:27:42;;;;;;;0.00;0.00;;;18.70;96.20;;;;;;4858607;29;20118;-82
2022/09/05 01:30:38;;;;;;;0.00;0.00;;;18.60;96.20;;;;;;4842974;29;20058;-84
2022/09/05 01:33:15;;;;;;;0.00;0.00;;;18.60;96.10;;;;;;4841507;29;20106;-83
2022/09/05 01:36:09;;;;;;;0.00;0.00;;;18.60;96.10;;;;;;4844316;29;20592;-82
2022/09/05 01:38:46;;;;;;;0.00;0.00;;;18.60;96.40;;;;;;4844803;29;20396;-82
2022/09/05 01:41:42;;;;;;;0.00;0.00;;;18.60;96.30;;;;;;4843001;29;20046;-83
2022/09/05 01:44:29;;;;;;;0.00;0.00;;;18.60;96.60;;;;;;4853053;29;20471;-82
2022/09/05 01:47:13;;;;;;;0.00;0.00;;;18.50;96.50;;;;;;4857205;29;20046;-82
2022/09/05 01:49:55;;;;;;;0.00;0.00;;;18.50;96.50;;;;;;4842742;29;20053;-81
2022/09/05 01:52:39;;;;;;;0.00;0.00;;;18.50;96.30;;;;;;4841319;29;20061;-82
2022/09/05 01:55:38;;;;;;;0.00;0.00;;;19.50;97.20;;;;;;4845459;29;20099;-82
2022/09/05 01:58:29;;;;;;;;;;;18.40;96.70;;;;;;4844031;29;20400;-82
2022/09/05 02:01:06;;;;;;;0.00;0.00;;;18.50;96.60;;;;;;4845446;29;19928;-85
2022/09/05 02:04:10;;;;;;;0.00;0.00;;;18.40;96.90;;;;;;4855819;29;20061;-82
2022/09/05 02:06:45;;;;;;;0.00;0.00;;;18.40;96.90;;;;;;4842747;29;20114;-83
2022/09/05 02:09:34;;;;;;;0.00;0.00;;;18.40;97.10;;;;;;4855981;29;20038;-83
2022/09/05 02:12:05;;;;;;;0.00;0.00;;;18.40;97.00;;;;;;4844303;29;20087;-83
2022/09/05 02:14:39;;;;;;;0.00;0.00;;;18.40;97.00;;;;;;4845942;29;20053;-80
2022/09/05 02:17:15;;;;;;;0.00;0.00;;;18.30;97.20;;;;;;4857194;29;20057;-83
2022/09/05 02:20:13;;;;;;;0.10;0.10;;;18.40;96.90;;;;;;4845170;29;20050;-82
2022/09/05 02:22:57;;;;;;;0.00;0.00;;;18.30;97.10;;;;;;4844853;29;20138;-82
2022/09/05 02:25:28;;;;;;;0.00;0.00;;;18.30;97.30;;;;;;4858028;29;20046;-82
2022/09/05 02:28:23;;;;;;;0.00;0.00;;;20.20;97.90;;;;;;4849187;29;21607;-83
2022/09/05 02:30:55;;;;;;;0.00;0.00;;;18.30;97.10;;;;;;4846274;29;20094;-83
2022/09/05 02:33:47;;;;;;;0.00;0.00;;;18.30;97.00;;;;;;4845157;29;20068;-81
2022/09/05 02:36:27;;;;;;;0.00;0.00;;;18.40;96.80;;;;;;4844671;29;20046;-83
2022/09/05 02:38:59;;;;;;;0.00;0.00;;;18.40;96.90;;;;;;4843623;29;20069;-83
2022/09/05 02:41:53;;;;;;;0.00;0.00;;;18.40;96.90;;;;;;4845775;29;20058;-83
2022/09/05 02:44:54;;;;;;;0.00;0.00;;;18.40;97.00;;;;;;4848995;29;20062;-83
2022/09/05 02:47:49;;;;;;;0.00;0.00;;;18.40;97.20;;;;;;4843042;29;20416;-83
2022/09/05 02:50:28;;;;;;;0.00;0.00;;;18.40;97.00;;;;;;4861032;29;20046;-82
2022/09/05 02:53:19;;;;;;;0.00;0.00;;;18.30;97.00;;;;;;4847324;29;20049;-82
2022/09/05 02:56:24;;;;;;;0.00;0.00;;;18.40;96.90;;;;;;4848633;29;20083;-81
2022/09/05 02:59:31;;;;;;;0.00;0.00;;;18.30;96.90;;;;;;4844433;29;20433;-81
2022/09/05 03:02:13;;;;;;;0.00;0.00;;;18.30;97.00;;;;;;4845099;29;20129;-82
2022/09/05 03:04:59;;;;;;;0.00;0.00;;;18.30;96.80;;;;;;4860261;29;20427;-84
2022/09/05 03:07:56;;;;;;;0.00;0.00;;;18.30;97.00;;;;;;4847435;29;20054;-80
2022/09/05 03:11:01;;;;;;;0.00;0.00;;;18.30;96.90;;;;;;4857833;29;20090;-82
2022/09/05 03:14:00;;;;;;;0.00;0.00;;;18.30;97.00;;;;;;4822170;29;20054;-82
2022/09/05 03:16:57;;;;;;;0.00;0.00;;;18.30;96.90;;;;;;4860345;29;20079;-83
2022/09/05 03:20:09;;;;;;;0.00;0.00;;;18.30;97.00;;;;;;4846501;29;20087;-83
2022/09/05 03:23:04;;;;;;;0.00;0.00;;;18.40;97.00;;;;;;4846537;29;20299;-82
2022/09/05 03:26:04;;;;;;;0.00;0.00;;;18.40;97.10;;;;;;4832739;29;20062;-84
2022/09/05 03:29:06;;;;;;;0.00;0.00;;;18.40;97.00;;;;;;4839037;29;20157;-81
2022/09/05 03:31:48;;;;;;;0.00;0.00;;;18.40;96.70;;;;;;4848317;29;20054;-83
2022/09/05 03:34:53;;;;;;;0.00;0.00;;;18.40;96.80;;;;;;4881788;23;20023;-80
2022/09/05 03:37:45;;;;;;;0.00;0.00;;;18.40;97.00;;;;;;4882276;29;20073;-79
2022/09/05 03:40:44;;;;;;;0.00;0.00;;;18.40;97.10;;;;;;4880011;29;20550;-80
2022/09/05 03:43:44;;;;;;;0.00;0.00;;;18.40;97.00;;;;;;4873371;29;20052;-78
2022/09/05 03:46:23;;;;;;;0.10;0.00;;;18.40;97.00;;;;;;4876962;29;20041;-80
2022/09/05 03:49:18;;;;;;;0.00;0.00;;;18.40;97.10;;;;;;4882372;29;20064;-79
2022/09/05 03:52:13;;;;;;;0.00;0.00;;;18.40;97.00;;;;;;4894167;29;20313;-79
2022/09/05 03:55:18;;;;;;;0.00;0.00;;;18.40;97.20;;;;;;4882173;29;20049;-79
2022/09/05 03:58:50;;;;;;;0.00;0.00;;;18.40;97.10;;;;;;4874055;29;20053;-80
2022/09/05 04:01:34;;;;;;;0.00;0.00;;;18.40;97.20;;;;;;4818012;29;20105;-80
2022/09/05 04:04:28;;;;;;;0.00;0.00;;;18.40;97.30;;;;;;4878768;29;20143;-79
2022/09/05 04:07:20;;;;;;;0.00;0.00;;;18.40;96.80;;;;;;4873757;29;20421;-78
2022/09/05 04:10:20;;;;;;;0.00;0.00;;;18.40;97.10;;;;;;4891513;29;20781;-80
2022/09/05 04:12:51;;;;;;;0.00;0.00;;;18.40;97.20;;;;;;4876704;29;20073;-79
2022/09/05 04:15:31;;;;;;;0.00;0.00;;;18.40;97.50;;;;;;4890717;29;20065;-82
2022/09/05 04:17:58;;;;;;;;;;;18.30;97.60;;;;;;4873343;29;20045;-80
2022/09/05 04:20:38;;;;;;;0.00;0.00;;;18.20;97.90;;;;;;4875803;29;19931;-79
2022/09/05 04:23:24;;;;;;;0.00;0.00;;;18.10;98.10;;;;;;4881351;29;20060;-81
2022/09/05 04:26:04;;;;;;;0.00;0.00;;;18.00;98.10;;;;;;4895139;29;20045;-79
2022/09/05 04:28:49;;;;;;;0.00;0.00;;;18.00;98.20;;;;;;4878008;29;20052;-81
2022/09/05 04:31:33;;;;;;;0.00;0.00;;;17.90;98.50;;;;;;4881225;29;20100;-79
2022/09/05 04:34:14;;;;;;;0.00;0.00;;;17.70;98.50;;;;;;4892234;29;20045;-81
2022/09/05 04:36:42;;;;;;;0.00;0.00;;;17.70;98.60;;;;;;4880641;29;20186;-80
2022/09/05 04:39:24;;;;;;;0.00;0.00;;;17.70;98.70;;;;;;4846955;29;20057;-79
2022/09/05 04:41:53;;;;;;;0.00;0.00;;;17.70;99.00;;;;;;4875491;29;20129;-79
2022/09/05 04:44:26;;;;;;;0.00;0.00;;;17.60;98.90;;;;;;4875975;29;20049;-78
2022/09/05 04:46:57;;;;;;;0.00;0.00;;;17.50;99.20;;;;;;4862284;29;20410;-79
2022/09/05 04:49:26;;;;;;;0.00;0.00;;;17.50;99.20;;;;;;4873991;29;20076;-81
2022/09/05 04:52:17;;;;;;;0.00;0.00;;;17.40;99.40;;;;;;4877274;29;20064;-80
2022/09/05 04:55:04;;;;;;;0.00;0.00;;;17.40;99.50;;;;;;4861386;29;20414;-79
2022/09/05 04:57:36;;;;;;;0.00;0.00;;;17.30;99.60;;;;;;4860540;29;20057;-80
2022/09/05 05:00:06;;;;;;;0.00;0.00;;;17.20;99.90;;;;;;4878380;29;20050;-83
2022/09/05 05:02:55;;;;;;;;;;;17.10;99.90;;;;;;4864955;29;20470;-81
2022/09/05 05:05:56;;;;;;;0.00;0.00;;;17.10;99.90;;;;;;4863649;29;19924;-80
2022/09/05 05:08:49;;;;;;;0.00;0.00;;;17.10;99.90;;;;;;4865441;29;20053;-79
2022/09/05 05:11:20;;;;;;;0.05;0.05;;;17.10;99.90;;;;;;4862257;29;20124;-80
2022/09/05 05:14:10;;;;;;;0.00;0.00;;;17.10;99.90;;;;;;4866963;29;20054;-81
2022/09/05 05:17:08;;;;;;;0.00;0.00;;;17.10;99.90;;;;;;4865543;29;20064;-82
2022/09/05 05:20:07;;;;;;;0.00;0.00;;;17.10;99.90;;;;;;4878181;29;20136;-82
2022/09/05 05:23:01;;;;;;;0.10;0.10;;;17.10;99.90;;;;;;4865253;29;20063;-83
2022/09/05 05:25:44;;;;;;;0.00;0.00;;;17.20;99.90;;;;;;4864721;29;20048;-80
2022/09/05 05:28:15;;;;;;;0.00;0.00;;;17.30;99.90;;;;;;4860936;29;20403;-81
2022/09/05 05:30:51;;;;;;;0.00;0.00;;;17.30;99.90;;;;;;4862859;29;20045;-83
2022/09/05 05:33:30;;;;;;;0.00;0.00;;;17.40;99.90;;;;;;4867604;29;20885;-82
2022/09/05 05:36:01;;;;;;;0.00;0.00;;;17.50;99.90;;;;;;4869510;29;20049;-80
2022/09/05 05:38:37;;;;;;;0.00;0.00;;;17.50;99.90;;;;;;4867109;29;20045;-83
2022/09/05 05:41:14;;;;;;;0.00;0.00;;;17.60;99.90;;;;;;4867088;29;20078;-82
2022/09/05 05:43:43;;;;;;;0.00;0.00;;;17.70;99.90;;;;;;4866563;29;20083;-82
2022/09/05 05:46:24;;;;;;;0.00;0.00;;;17.80;99.90;;;;;;4872270;29;20056;-82
2022/09/05 05:48:59;;;;;;;0.00;0.00;;;17.80;99.90;;;;;;4867486;29;20053;-81
2022/09/05 05:51:38;;;;;;;0.00;0.00;;;17.90;99.90;;;;;;4870125;29;20455;-81
2022/09/05 05:54:32;;;;;;;0.00;0.00;;;18.00;99.90;;;;;;4884170;29;20162;-79
2022/09/05 05:57:33;;;;;;;0.00;0.00;;;18.20;99.90;;;;;;4868695;29;20056;-80
2022/09/05 06:00:13;;;;;;;0.00;0.00;;;18.20;99.90;;;;;;4861039;29;20045;-79
2022/09/05 06:03:23;;;;;;;0.00;0.00;;;18.30;99.90;;;;;;4889371;29;20044;-80
2022/09/05 06:06:06;;;;;;;0.00;0.00;;;18.40;99.90;;;;;;4862294;29;20042;-79
2022/09/05 06:09:21;;;;;;;0.00;0.00;;;18.40;99.90;;;;;;4863510;29;20106;-79
2022/09/05 06:13:00;;;;;;;0.00;0.00;;;18.60;99.90;;;;;;4863017;29;20053;-80
2022/09/05 06:16:08;;;;;;;;;;;18.70;99.80;;;;;;4834223;29;20054;-79
2022/09/05 06:19:07;;;;;;;0.00;0.00;;;18.80;99.20;;;;;;4841818;29;19925;-80
2022/09/05 06:22:13;;;;;;;0.00;0.00;;;18.90;99.00;;;;;;4857199;29;20117;-78
2022/09/05 06:25:23;;;;;;;0.00;0.00;;;18.90;99.00;;;;;;4862359;29;20056;-79
2022/09/05 06:28:10;;;;;;;0.00;0.00;;;19.00;98.80;;;;;;4858941;29;20058;-79
2022/09/05 06:30:55;;;;;;;0.00;0.00;;;19.10;98.50;;;;;;4861299;29;20562;-80
2022/09/05 06:33:59;;;;;;;0.00;0.00;;;19.20;98.30;;;;;;4856867;29;20060;-80
2022/09/05 06:36:42;;;;;;;0.00;0.00;;;19.30;98.20;;;;;;4849643;29;20057;-79
2022/09/05 06:39:16;;;;;;;0.00;0.00;;;19.40;98.00;;;;;;4865324;29;20455;-78
2022/09/05 06:42:05;;;;;;;0.00;0.00;;;19.40;98.30;;;;;;4859650;29;20395;-79
2022/09/05 06:44:46;;;;;;;0.00;0.00;;;19.50;98.50;;;;;;4860880;29;20045;-78
2022/09/05 06:47:18;;;;;;;0.00;0.00;;;19.60;98.30;;;;;;4859131;29;20041;-80
2022/09/05 06:50:06;;;;;;;0.00;0.00;;;19.70;98.10;;;;;;4861134;29;20053;-81
2022/09/05 06:53:25;;;;;;;0.00;0.00;;;19.80;98.30;;;;;;4861995;29;20072;-80
2022/09/05 06:56:16;;;;;;;0.00;0.00;;;19.80;98.00;;;;;;4860803;29;20064;-79
2022/09/05 06:59:21;;;;;;;0.00;0.00;;;19.90;98.10;;;;;;4860830;29;20119;-80
2022/09/05 07:01:54;;;;;;;0.00;0.00;;;20.00;98.10;;;;;;4862299;29;20045;-80
2022/09/05 07:04:36;;;;;;;0.00;0.00;;;20.10;97.90;;;;;;4863307;29;20049;-80
2022/09/05 07:07:29;;;;;;;0.00;0.00;;;20.20;97.50;;;;;;4858657;29;20061;-78
2022/09/05 07:10:03;;;;;;;0.00;0.00;;;20.30;97.20;;;;;;4863026;29;20037;-81
2022/09/05 07:12:56;;;;;;;0.00;0.00;;;20.40;97.20;;;;;;4863272;29;20054;-79
2022/09/05 07:15:37;;;;;;;0.00;0.00;;;20.40;97.00;;;;;;4863692;29;20105;-80
2022/09/05 07:18:12;;;;;;;0.00;0.00;;;20.40;96.80;;;;;;4856664;29;20052;-78
2022/09/05 07:20:47;;;;;;;0.00;0.00;;;20.40;96.70;;;;;;4862118;29;20046;-77
2022/09/05 07:23:44;;;;;;;0.00;0.00;;;20.50;96.50;;;;;;4862493;29;20062;-80
2022/09/05 07:26:35;;;;;;;0.00;0.00;;;20.60;96.30;;;;;;4860456;29;20057;-80
2022/09/05 07:29:25;;;;;;;0.00;0.00;;;20.70;96.20;;;;;;4865318;29;20467;-80
2022/09/05 07:31:58;;;;;;;0.00;0.00;;;20.80;96.00;;;;;;4861675;29;20054;-81
2022/09/05 07:34:28;;;;;;;0.00;0.00;;;20.90;95.90;;;;;;4858645;29;20082;-80
2022/09/05 07:36:57;;;;;;;0.00;0.00;;;20.90;95.70;;;;;;4857803;29;20463;-80
2022/09/05 07:39:47;;;;;;;0.00;0.00;;;21.00;95.50;;;;;;4866467;29;20049;-79
2022/09/05 07:42:19;;;;;;;0.00;0.00;;;21.00;95.40;;;;;;4858735;29;20040;-80
2022/09/05 07:44:55;;;;;;;0.00;0.00;;;21.10;95.60;;;;;;4867171;29;20140;-78
2022/09/05 07:47:27;;;;;;;0.00;0.00;;;21.10;95.20;;;;;;4860778;29;20060;-79
2022/09/05 07:49:58;;;;;;;0.00;0.00;;;21.20;95.50;;;;;;4863220;29;20053;-79
2022/09/05 07:52:47;;;;;;;0.00;0.00;;;21.30;95.30;;;;;;4862726;29;20055;-79
2022/09/05 07:55:35;;;;;;;0.00;0.00;;;21.30;95.30;;;;;;4860271;29;20051;-81
2022/09/05 07:58:31;;;;;;;0.00;0.00;;;21.40;94.90;;;;;;4863148;29;20057;-80
2022/09/05 08:00:58;;;;;;;0.00;0.00;;;21.40;94.90;;;;;;4857168;29;20043;-80
2022/09/05 08:03:29;;;;;;;0.00;0.00;;;21.40;95.00;;;;;;4862590;29;20106;-80
2022/09/05 08:06:03;;;;;;;0.10;0.00;;;21.40;95.00;;;;;;4877322;29;20040;-80
2022/09/05 08:08:37;;;;;;;0.00;0.00;;;21.50;94.90;;;;;;4861926;29;20101;-81
2022/09/05 08:11:10;;;;;;;0.00;0.00;;;21.50;94.70;;;;;;4863811;29;20047;-80
2022/09/05 08:13:56;;;;;;;0.00;0.00;;;21.50;94.90;;;;;;4861847;29;20133;-81
2022/09/05 08:16:43;;;;;;;0.00;0.00;;;21.60;94.70;;;;;;4862045;29;20521;-80
2022/09/05 08:19:35;;;;;;;0.00;0.00;;;21.60;94.40;;;;;;4867191;29;20076;-80
2022/09/05 08:22:05;;;;;;;0.00;0.00;;;21.90;94.30;;;;;;4861962;29;20041;-82
2022/09/05 08:24:36;;;;;;;0.00;0.00;;;21.70;94.30;;;;;;4862349;29;20101;-80
2022/09/05 08:27:10;;;;;;;0.00;0.00;;;21.80;94.10;;;;;;4864177;29;20518;-79
2022/09/05 08:29:47;;;;;;;0.00;0.00;;;22.10;94.10;;;;;;4865247;29;20056;-77
2022/09/05 08:32:25;;;;;;;0.00;0.00;;;22.00;93.90;;;;;;4862012;29;20042;-78
2022/09/05 08:35:00;;;;;;;0.00;0.00;;;22.10;93.70;;;;;;4861994;29;20587;-81
2022/09/05 08:37:30;;;;;;;0.00;0.00;;;22.10;93.40;;;;;;4893367;29;20045;-78
2022/09/05 08:40:04;;;;;;;0.00;0.00;;;22.10;93.40;;;;;;4863715;29;20050;-78
2022/09/05 08:42:46;;;;;;;0.00;0.00;;;22.30;93.40;;;;;;4868194;29;20057;-81
2022/09/05 08:45:40;;;;;;;0.00;0.00;;;22.40;93.30;;;;;;4863368;29;20060;-81
2022/09/05 08:48:39;;;;;;;0.00;0.00;;;22.40;92.80;;;;;;4856654;29;20052;-80
2022/09/05 08:51:32;;;;;;;0.00;0.00;;;22.50;92.90;;;;;;4841461;29;20053;-80
2022/09/05 08:54:31;;;;;;;0.00;0.00;;;22.60;92.60;;;;;;4860298;29;20053;-80
2022/09/05 08:57:04;;;;;;;0.00;0.00;;;22.60;92.70;;;;;;4861945;29;20054;-79
2022/09/05 08:59:42;;;;;;;0.00;0.00;;;22.70;93.00;;;;;;4863147;29;20510;-81
2022/09/05 09:02:55;;;;;;;0.00;0.00;;;22.70;92.80;;;;;;4858510;29;20067;-81
2022/09/05 09:06:02;;;;;;;0.00;0.00;;;22.80;92.60;;;;;;4862136;29;20053;-80
2022/09/05 09:08:54;;;;;;;0.00;0.00;;;22.90;92.50;;;;;;4864097;29;20057;-80
2022/09/05 09:11:29;;;;;;;0.00;0.00;;;23.00;92.60;;;;;;4863422;29;20059;-80
2022/09/05 09:14:21;;;;;;;0.00;0.00;;;23.30;91.80;;;;;;4866839;29;20052;-79
2022/09/05 09:17:05;;;;;;;0.00;0.00;;;23.30;92.00;;;;;;4862776;29;20418;-80
2022/09/05 09:19:47;;;;;;;0.00;0.00;;;23.40;91.60;;;;;;4867872;29;20406;-80
2022/09/05 09:22:27;;;;;;;0.00;0.00;;;23.50;91.70;;;;;;4870215;29;20037;-79
2022/09/05 09:25:06;;;;;;;0.00;0.00;;;23.60;91.50;;;;;;4862295;29;20052;-80
2022/09/05 09:27:56;;;;;;;0.00;0.00;;;23.60;91.40;;;;;;4863757;29;20053;-80
2022/09/05 09:30:53;;;;;;;0.00;0.00;;;23.70;91.40;;;;;;4865707;29;20137;-81
2022/09/05 09:33:37;;;;;;;0.00;0.00;;;23.70;91.30;;;;;;4856214;29;20049;-81
2022/09/05 09:38:58;;;;;;;0.00;0.00;;;24.00;91.10;;;;;;4885828;29;20048;-81
2022/09/05 09:41:55;;;;;;;0.00;0.00;;;24.10;90.80;;;;;;4885244;29;20061;-82
2022/09/05 09:45:02;;;;;;;0.00;0.00;;;24.20;90.50;;;;;;4888398;29;20053;-83
2022/09/05 09:48:28;;;;;;;0.00;0.00;;;24.20;90.50;;;;;;4875810;29;20050;-84
2022/09/05 09:51:06;;;;;;;0.00;0.00;;;24.40;90.10;;;;;;4843066;29;20057;-83
2022/09/05 09:53:48;;;;;;;0.00;0.00;;;24.40;90.30;;;;;;4869568;29;20045;-83
2022/09/05 09:56:29;;;;;;;0.00;0.00;;;24.50;90.50;;;;;;4869977;29;20046;-81
2022/09/05 09:59:20;;;;;;;0.00;0.00;;;24.50;90.20;;;;;;4869142;29;20041;-82
2022/09/05 10:01:55;;;;;;;0.00;0.00;;;24.60;89.90;;;;;;4864156;29;20051;-81
2022/09/05 10:05:03;;;;;;;0.00;0.00;;;24.70;89.50;;;;;;4868069;29;20132;-82
2022/09/05 10:08:07;;;;;;;0.00;0.00;;;24.70;89.80;;;;;;4869231;29;20503;-82
2022/09/05 10:11:10;;;;;;;0.00;0.00;;;24.90;89.50;;;;;;4868767;29;20490;-82
2022/09/05 10:14:35;;;;;;;0.00;0.00;;;24.90;88.50;;;;;;4868737;29;20045;-83
2022/09/05 10:17:34;;;;;;;0.00;0.00;;;25.00;89.30;;;;;;4865465;29;20450;-82
2022/09/05 10:20:19;;;;;;;0.00;0.00;;;25.00;89.00;;;;;;4867198;29;20060;-82
2022/09/05 10:23:12;;;;;;;0.00;0.00;;;25.00;88.90;;;;;;4869316;29;20069;-83
2022/09/05 10:26:08;;;;;;;0.00;0.00;;;25.10;89.20;;;;;;4858179;29;20451;-83
2022/09/05 10:28:41;;;;;;;0.00;0.00;;;25.10;88.40;;;;;;4865576;29;20041;-81
2022/09/05 10:31:16;;;;;;;0.00;0.00;;;25.30;88.10;;;;;;4864613;29;20061;-82
2022/09/05 10:34:17;;;;;;;0.00;0.00;;;25.40;88.00;;;;;;4867274;29;20109;-83
2022/09/05 10:37:10;;;;;;;0.00;0.00;;;25.50;87.40;;;;;;4861348;29;20133;-82
2022/09/05 10:39:41;;;;;;;0.00;0.00;;;25.70;86.90;;;;;;4866637;29;20054;-82
2022/09/05 10:42:14;;;;;;;0.00;0.00;;;25.80;87.20;;;;;;4870005;29;20021;-82
2022/09/05 10:44:46;;;;;;;0.00;0.00;;;26.10;85.20;;;;;;4869919;29;20054;-84
2022/09/05 10:47:32;;;;;;;0.00;0.00;;;26.10;86.30;;;;;;4869849;29;20510;-82
2022/09/05 10:50:10;;;;;;;0.00;0.00;;;26.10;85.80;;;;;;4872448;29;20570;-83
2022/09/05 10:53:08;;;;;;;0.00;0.00;;;26.20;85.90;;;;;;4869069;29;20053;-83
2022/09/05 10:55:48;;;;;;;0.00;0.00;;;26.20;85.00;;;;;;4869343;29;20041;-82
2022/09/05 10:58:31;;;;;;;0.00;0.00;;;26.30;85.40;;;;;;4865949;29;20530;-83
2022/09/05 11:01:32;;;;;;;0.00;0.00;;;26.30;85.20;;;;;;4866821;29;20117;-81
2022/09/05 11:04:34;;;;;;;0.00;0.00;;;26.40;85.00;;;;;;4866199;29;20129;-84
2022/09/05 11:07:20;;;;;;;0.00;0.00;;;26.60;84.60;;;;;;4875492;29;20041;-84
2022/09/05 11:10:03;;;;;;;0.00;0.00;;;26.80;83.50;;;;;;4867928;29;20042;-84
2022/09/05 11:12:49;;;;;;;0.00;0.00;;;26.80;84.60;;;;;;4871981;29;20045;-82
2022/09/05 11:15:32;;;;;;;0.00;0.00;;;26.80;85.40;;;;;;4908605;29;20037;-82
2022/09/05 11:18:03;;;;;;;0.00;0.00;;;26.70;83.70;;;;;;4905189;29;20052;-83
2022/09/05 11:20:43;;;;;;;0.00;0.00;;;26.70;84.00;;;;;;4905324;29;20077;-83
2022/09/05 11:23:18;;;;;;;0.00;0.00;;;26.60;83.90;;;;;;4905210;29;20442;-83
2022/09/05 11:25:46;;;;;;;0.00;0.00;;;26.60;85.20;;;;;;4904269;29;20049;-83
2022/09/05 11:28:16;;;;;;;0.00;0.00;;;26.70;84.10;;;;;;4902150;29;20040;-82
2022/09/05 11:30:50;;;;;;;0.00;0.00;;;26.80;84.40;;;;;;4907489;29;20037;-85
2022/09/05 11:33:46;;;;;;;0.00;0.00;;;27.00;84.10;;;;;;4917957;29;20037;-84
2022/09/05 11:36:35;;;;;;;0.00;0.00;;;27.00;84.20;;;;;;4904252;29;20831;-82
2022/09/05 11:40:01;;;;;;;0.00;0.00;;;27.20;84.30;;;;;;4905165;29;20127;-83
2022/09/05 11:43:10;;;;;;;0.00;0.00;;;27.30;83.80;;;;;;4915804;29;20057;-84
2022/09/05 11:45:47;;;;;;;;;;;27.30;83.30;;;;;;4918187;29;20041;-84
2022/09/05 11:48:47;;;;;;;0.00;0.00;;;27.30;82.30;;;;;;4900750;29;19924;-83
2022/09/05 11:51:43;;;;;;;0.00;0.00;;;27.20;83.10;;;;;;4902329;29;20124;-84
2022/09/05 11:54:56;;;;;;;0.00;0.00;;;27.30;83.60;;;;;;4917017;29;20095;-83
2022/09/05 11:57:51;;;;;;;0.00;0.00;;;27.20;83.20;;;;;;4902125;29;20585;-83
2022/09/05 12:00:24;;;;;;;;;;;27.30;83.60;;;;;;4903498;29;20049;-84
2022/09/05 12:03:39;;;;;;;0.00;0.00;;;27.40;82.80;;;;;;4903701;29;19924;-83
2022/09/05 12:07:04;;;;;;;0.00;0.00;;;27.40;82.80;;;;;;4900756;29;20049;-83
2022/09/05 12:10:08;;;;;;;0.00;0.00;;;27.50;82.20;;;;;;4895871;29;20063;-83
2022/09/05 12:13:16;;;;;;;0.00;0.00;;;27.50;83.10;;;;;;4897494;29;20041;-81
2022/09/05 12:15:47;;;;;;;0.00;0.00;;;27.50;82.90;;;;;;4901097;29;20406;-82
2022/09/05 12:18:42;;;;;;;0.00;0.00;;;27.40;82.80;;;;;;4901925;29;20044;-80
2022/09/05 12:21:28;;;;;;;0.00;0.00;;;27.30;82.40;;;;;;4906451;29;20592;-83
2022/09/05 12:24:04;;;;;;;0.00;0.00;;;27.30;82.50;;;;;;4901744;29;20052;-82
2022/09/05 12:27:00;;;;;;;0.00;0.00;;;27.40;83.20;;;;;;4896064;29;20309;-80
2022/09/05 12:29:53;;;;;;;0.00;0.00;;;27.50;82.20;;;;;;4910720;29;20157;-82
2022/09/05 12:32:26;;;;;;;0.00;0.00;;;27.50;82.20;;;;;;4901630;29;20053;-82
2022/09/05 12:35:21;;;;;;;0.00;0.00;;;27.50;80.60;;;;;;4907816;29;20143;-83
2022/09/05 12:38:25;;;;;;;0.00;0.00;;;27.50;81.20;;;;;;4901326;29;20059;-83
2022/09/05 12:41:17;;;;;;;0.00;0.00;;;27.50;81.40;;;;;;4905071;29;20048;-83
2022/09/05 12:44:21;;;;;;;0.00;0.00;;;27.50;79.90;;;;;;4899288;29;20062;-82
2022/09/05 12:47:09;;;;;;;0.00;0.00;;;27.30;80.50;;;;;;4904593;29;20055;-81
2022/09/05 12:49:57;;;;;;;0.00;0.00;;;27.50;80.80;;;;;;4897962;29;20582;-84
2022/09/05 12:52:43;;;;;;;0.00;0.00;;;27.70;80.20;;;;;;4899676;29;20059;-84
2022/09/05 12:55:19;;;;;;;0.00;0.00;;;27.80;80.00;;;;;;4901947;29;20040;-82
2022/09/05 12:57:50;;;;;;;0.00;0.00;;;27.90;79.70;;;;;;4898621;29;20059;-82
2022/09/05 13:00:42;;;;;;;0.00;0.00;;;27.80;80.00;;;;;;4904227;29;20056;-81
2022/09/05 13:03:32;;;;;;;0.00;0.00;;;28.00;79.90;;;;;;4899315;29;20504;-83
2022/09/05 13:06:07;;;;;;;0.00;0.00;;;28.10;80.10;;;;;;4918931;29;20080;-83
2022/09/05 13:08:42;;;;;;;0.00;0.00;;;28.20;79.20;;;;;;4900396;29;20392;-80
2022/09/05 13:11:11;;;;;;;0.00;0.00;;;29.30;79.70;;;;;;4901235;29;20417;-84
2022/09/05 13:14:04;;;;;;;0.00;0.00;;;28.30;79.10;;;;;;4903739;29;20075;-83
2022/09/05 13:16:55;;;;;;;0.00;0.00;;;28.20;79.20;;;;;;4899524;29;20043;-80
2022/09/05 13:19:31;;;;;;;0.00;0.00;;;28.10;79.90;;;;;;4901470;29;20505;-83
2022/09/05 13:22:01;;;;;;;0.00;0.00;;;28.10;79.00;;;;;;4901797;29;20048;-84
2022/09/05 13:24:32;;;;;;;;;;;28.10;79.40;;;;;;4900155;29;20048;-83
2022/09/05 13:27:08;;;;;;;0.00;0.00;;;28.00;78.50;;;;;;4900379;29;19923;-80
2022/09/05 13:29:47;;;;;;;0.00;0.00;;;28.30;78.90;;;;;;4900051;29;21399;-82
2022/09/05 13:32:37;;;;;;;0.00;0.00;;;28.00;78.70;;;;;;4899870;29;20108;-80
2022/09/05 13:35:27;;;;;;;0.00;0.00;;;28.00;78.70;;;;;;4902746;29;20667;-83
2022/09/05 13:38:15;;;;;;;0.00;0.00;;;27.90;78.20;;;;;;4902762;29;20139;-83
2022/09/05 13:41:03;;;;;;;0.00;0.00;;;27.90;77.90;;;;;;4902459;29;20049;-82
2022/09/05 13:43:37;;;;;;;0.00;0.00;;;27.90;78.20;;;;;;4898202;29;20028;-81
2022/09/05 13:46:11;;;;;;;0.00;0.00;;;27.80;78.00;;;;;;4901869;29;20071;-84
2022/09/05 13:48:50;;;;;;;0.00;0.00;;;28.00;78.80;;;;;;4902819;29;20041;-83
2022/09/05 13:51:42;;;;;;;0.00;0.00;;;28.10;77.90;;;;;;4901609;29;20144;-81
2022/09/05 13:54:28;;;;;;;0.00;0.00;;;28.30;76.60;;;;;;4904204;29;20044;-82
2022/09/05 13:57:14;;;;;;;0.00;0.00;;;28.40;76.30;;;;;;4901695;29;20045;-82
2022/09/05 14:00:24;;;;;;;0.00;0.00;;;28.40;76.10;;;;;;4903543;29;20064;-82
2022/09/05 14:03:20;;;;;;;0.00;0.00;;;28.50;75.70;;;;;;4901491;29;20052;-81
2022/09/05 14:06:24;;;;;;;0.00;0.00;;;28.50;75.60;;;;;;4900999;29;20088;-79
2022/09/05 14:09:25;;;;;;;0.00;0.00;;;28.40;76.30;;;;;;4900821;29;20128;-80
2022/09/05 14:12:16;;;;;;;0.00;0.00;;;28.40;75.80;;;;;;4900301;29;20076;-81
2022/09/05 14:14:47;;;;;;;0.00;0.00;;;28.50;75.10;;;;;;4890653;29;20037;-81
2022/09/05 14:17:52;;;;;;;0.00;0.00;;;28.40;75.90;;;;;;4895599;29;20615;-79
2022/09/05 14:23:14;;;;;;;;;;;28.50;75.60;;;;;;4904460;29;20041;-82
2022/09/05 14:25:46;;;;;;;0.00;0.00;;;28.60;75.40;;;;;;4906210;29;20141;-82
2022/09/05 14:28:21;;;;;;;0.00;0.00;;;28.90;75.50;;;;;;4902672;29;20097;-84
2022/09/05 14:30:52;;;;;;;0.00;0.00;;;28.70;73.60;;;;;;4905380;29;20041;-82
2022/09/05 14:34:07;;;;;;;0.00;0.00;;;28.90;72.20;;;;;;4905501;29;20508;-82
2022/09/05 14:37:03;;;;;;;0.00;0.00;;;29.10;72.60;;;;;;4901836;29;20518;-80